createdAt,value
2022-11-16T00:00:05.939Z,1.10
2022-11-16T00:02:34.101Z,1.40
2022-11-16T00:05:01.137Z,1.00
2022-11-16T00:07:28.154Z,1.10
2022-11-16T00:09:55.203Z,0.90
2022-11-16T00:12:21.810Z,1.20
2022-11-16T00:14:48.804Z,1.10
2022-11-16T00:17:15.467Z,1.08
2022-11-16T00:19:42.455Z,1.10
2022-11-16T00:22:08.998Z,1.13
2022-11-16T00:24:35.587Z,1.05
2022-11-16T00:27:02.179Z,1.30
2022-11-16T00:29:29.273Z,1.20
2022-11-16T00:31:56.022Z,1.17
2022-11-16T00:34:23.687Z,1.13
2022-11-16T00:36:51.243Z,1.20
2022-11-16T00:39:18.727Z,1.20
2022-11-16T00:41:46.800Z,1.10
2022-11-16T00:44:14.053Z,1.20
2022-11-16T00:46:40.643Z,1.30
2022-11-16T00:49:07.572Z,1.00
2022-11-16T00:51:35.491Z,1.20
2022-11-16T00:54:03.467Z,1.10
2022-11-16T00:56:30.626Z,1.00
2022-11-16T00:58:57.700Z,1.20
2022-11-16T01:01:24.776Z,1.27
2022-11-16T01:03:52.050Z,1.23
2022-11-16T01:06:18.812Z,1.02
2022-11-16T01:08:45.838Z,1.15
2022-11-16T01:11:35.617Z,1.42
2022-11-16T01:14:05.478Z,0.93
2022-11-16T01:16:32.377Z,1.15
2022-11-16T01:18:59.645Z,1.15
2022-11-16T01:21:26.231Z,1.15
2022-11-16T01:23:52.830Z,1.40
2022-11-16T01:26:19.822Z,1.10
2022-11-16T01:28:46.940Z,1.30
2022-11-16T01:31:14.355Z,1.15
2022-11-16T01:33:41.475Z,0.90
2022-11-16T01:36:14.568Z,1.10
2022-11-16T01:38:43.763Z,1.27
2022-11-16T01:41:15.864Z,1.00
2022-11-16T01:43:55.021Z,1.15
2022-11-16T01:46:22.158Z,1.20
2022-11-16T01:48:53.712Z,1.10
2022-11-16T01:51:21.329Z,1.10
2022-11-16T01:53:48.437Z,0.93
2022-11-16T01:56:15.491Z,1.10
2022-11-16T01:58:42.651Z,1.08
2022-11-16T02:01:09.253Z,1.10
2022-11-16T02:03:38.292Z,1.10
2022-11-16T02:06:20.088Z,1.10
2022-11-16T02:09:19.064Z,1.10
2022-11-16T02:12:02.058Z,1.23
2022-11-16T02:15:05.505Z,1.10
2022-11-16T02:17:56.371Z,1.00
2022-11-16T02:20:38.324Z,0.98
2022-11-16T02:23:23.697Z,0.80
2022-11-16T02:25:52.995Z,1.17
2022-11-16T02:28:38.670Z,1.00
2022-11-16T02:31:09.160Z,1.30
2022-11-16T02:33:40.741Z,1.00
2022-11-16T02:36:13.779Z,1.20
2022-11-16T02:38:46.356Z,1.10
2022-11-16T02:41:20.371Z,1.00
2022-11-16T02:43:54.978Z,1.10
2022-11-16T02:46:27.436Z,1.00
2022-11-16T02:48:58.254Z,0.90
2022-11-16T02:51:28.904Z,0.98
2022-11-16T02:54:17.197Z,0.90
2022-11-16T02:56:56.660Z,1.20
2022-11-16T02:59:28.388Z,0.80
2022-11-16T03:02:05.134Z,0.90
2022-11-16T03:04:38.875Z,1.23
2022-11-16T03:07:11.497Z,0.93
2022-11-16T03:09:41.870Z,1.08
2022-11-16T03:12:14.210Z,1.02
2022-11-16T03:14:55.983Z,1.02
2022-11-16T03:17:34.248Z,1.10
2022-11-16T03:20:14.296Z,0.95
2022-11-16T03:22:50.154Z,0.90
2022-11-16T03:27:49.304Z,0.82
2022-11-16T03:30:24.303Z,0.90
2022-11-16T03:33:17.467Z,1.10
2022-11-16T03:35:56.917Z,0.90
2022-11-16T03:38:26.607Z,1.13
2022-11-16T03:40:59.385Z,1.63
2022-11-16T03:43:27.737Z,1.10
2022-11-16T03:45:54.940Z,1.02
2022-11-16T03:48:21.496Z,1.23
2022-11-16T03:50:48.724Z,0.95
2022-11-16T03:53:15.815Z,1.00
2022-11-16T03:55:48.494Z,1.20
2022-11-16T03:58:18.616Z,1.25
2022-11-16T04:00:46.047Z,1.20
2022-11-16T04:03:12.661Z,1.23
2022-11-16T04:05:57.686Z,1.05
2022-11-16T04:08:42.594Z,1.10
2022-11-16T04:11:31.699Z,0.95
2022-11-16T04:14:17.358Z,1.17
2022-11-16T04:17:02.638Z,1.20
2022-11-16T04:19:47.701Z,1.13
2022-11-16T04:22:40.305Z,1.10
2022-11-16T04:25:16.046Z,1.13
2022-11-16T04:28:01.494Z,1.20
2022-11-16T04:30:48.069Z,1.17
2022-11-16T04:33:33.556Z,1.20
2022-11-16T04:36:20.691Z,1.30
2022-11-16T04:38:47.430Z,1.10
2022-11-16T04:41:33.928Z,1.00
2022-11-16T04:44:00.906Z,1.13
2022-11-16T04:46:45.821Z,1.05
2022-11-16T04:49:12.887Z,1.40
2022-11-16T04:51:40.008Z,1.02
2022-11-16T04:54:06.496Z,1.10
2022-11-16T04:56:33.551Z,1.10
2022-11-16T04:59:00.137Z,1.17
2022-11-16T05:01:45.272Z,1.20
2022-11-16T05:04:13.135Z,1.05
2022-11-16T05:06:40.101Z,1.00
2022-11-16T05:09:07.896Z,1.00
2022-11-16T05:11:34.971Z,0.93
2022-11-16T05:14:02.529Z,1.10
2022-11-16T05:16:29.080Z,1.05
2022-11-16T05:19:14.210Z,1.30
2022-11-16T05:21:41.158Z,0.93
2022-11-16T05:24:26.642Z,1.10
2022-11-16T05:26:53.590Z,1.05
2022-11-16T05:29:20.152Z,1.30
2022-11-16T05:31:47.103Z,1.35
2022-11-16T05:34:13.874Z,1.15
2022-11-16T05:36:40.436Z,1.27
2022-11-16T05:39:07.709Z,1.60
2022-11-16T05:41:34.365Z,1.38
2022-11-16T05:44:00.958Z,1.40
2022-11-16T05:46:27.925Z,1.27
2022-11-16T05:48:54.940Z,1.30
2022-11-16T05:51:21.776Z,1.30
2022-11-16T05:53:49.518Z,1.50
2022-11-16T05:56:16.847Z,1.30
2022-11-16T05:58:43.871Z,1.25
2022-11-16T06:01:10.502Z,1.52
2022-11-16T06:03:37.163Z,1.42
2022-11-16T06:06:05.284Z,1.25
2022-11-16T06:08:32.572Z,1.40
2022-11-16T06:11:08.105Z,1.45
2022-11-16T06:13:35.967Z,1.45
2022-11-16T06:16:04.478Z,1.27
2022-11-16T06:18:32.778Z,1.25
2022-11-16T06:21:00.497Z,1.40
2022-11-16T06:23:27.057Z,1.20
2022-11-16T06:25:55.125Z,1.10
2022-11-16T06:28:22.956Z,1.30
2022-11-16T06:30:50.293Z,1.17
2022-11-16T06:33:17.740Z,1.05
2022-11-16T06:35:44.365Z,1.27
2022-11-16T06:38:11.451Z,1.20
2022-11-16T06:40:38.817Z,1.20
2022-11-16T06:43:05.842Z,1.10
2022-11-16T06:45:32.385Z,0.98
2022-11-16T06:47:58.901Z,1.15
2022-11-16T06:50:25.419Z,1.25
2022-11-16T06:52:51.930Z,1.60
2022-11-16T06:55:18.570Z,1.27
2022-11-16T06:57:46.290Z,1.40
2022-11-16T07:00:13.465Z,0.95
2022-11-16T07:02:40.849Z,1.23
2022-11-16T07:05:08.050Z,1.33
2022-11-16T07:07:35.162Z,1.15
2022-11-16T07:10:02.180Z,1.20
2022-11-16T07:12:28.810Z,1.25
2022-11-16T07:14:55.353Z,1.35
2022-11-16T07:17:22.338Z,1.08
2022-11-16T07:19:49.354Z,0.90
2022-11-16T07:22:15.897Z,1.20
2022-11-16T07:24:42.904Z,1.30
2022-11-16T07:27:09.463Z,1.20
2022-11-16T07:29:35.957Z,1.10
2022-11-16T07:32:02.484Z,1.30
2022-11-16T07:34:29.017Z,1.38
2022-11-16T07:36:56.436Z,1.95
2022-11-16T07:39:23.016Z,1.63
2022-11-16T07:41:53.059Z,1.80
2022-11-16T07:44:20.335Z,1.50
2022-11-16T07:46:48.152Z,1.50
2022-11-16T07:49:17.733Z,1.30
2022-11-16T07:51:45.682Z,1.50
2022-11-16T07:54:15.138Z,1.70
2022-11-16T07:56:42.082Z,1.50
2022-11-16T07:59:08.928Z,1.83
2022-11-16T08:01:35.591Z,1.23
2022-11-16T08:04:02.734Z,1.30
2022-11-16T08:06:31.615Z,1.45
2022-11-16T08:08:59.309Z,1.30
2022-11-16T08:11:26.273Z,1.30
2022-11-16T08:13:53.301Z,1.30
2022-11-16T08:16:21.827Z,1.20
2022-11-16T08:18:48.926Z,1.10
2022-11-16T08:21:17.326Z,0.90
2022-11-16T08:23:47.173Z,1.20
2022-11-16T08:26:20.464Z,0.82
2022-11-16T08:28:50.931Z,0.80
2022-11-16T08:31:22.431Z,1.13
2022-11-16T08:33:49.072Z,0.88
2022-11-16T08:36:19.398Z,1.02
2022-11-16T08:38:47.683Z,0.90
2022-11-16T08:41:15.111Z,1.02
2022-11-16T08:43:42.014Z,0.80
2022-11-16T08:46:10.353Z,1.02
2022-11-16T08:48:38.316Z,1.20
2022-11-16T08:51:20.782Z,1.00
2022-11-16T08:53:49.205Z,1.00
2022-11-16T08:56:18.541Z,0.82
2022-11-16T08:58:53.793Z,1.02
2022-11-16T09:01:26.194Z,1.00
2022-11-16T09:03:54.070Z,0.98
2022-11-16T09:06:21.289Z,0.90
2022-11-16T09:08:47.852Z,1.20
2022-11-16T09:11:17.039Z,0.90
2022-11-16T09:13:45.299Z,1.23
2022-11-16T09:16:12.287Z,1.08
2022-11-16T09:18:38.843Z,1.15
2022-11-16T09:21:05.505Z,1.67
2022-11-16T09:23:32.092Z,1.17
2022-11-16T09:26:02.250Z,1.50
2022-11-16T09:28:28.845Z,1.15
2022-11-16T09:31:00.875Z,1.27
2022-11-16T09:33:30.209Z,1.23
2022-11-16T09:36:01.679Z,1.33
2022-11-16T09:38:40.575Z,1.25
2022-11-16T09:41:15.429Z,1.42
2022-11-16T09:44:03.049Z,1.40
2022-11-16T09:46:36.499Z,1.13
2022-11-16T09:49:17.312Z,1.10
2022-11-16T09:51:48.767Z,1.40
2022-11-16T09:54:20.347Z,1.15
2022-11-16T09:56:51.742Z,1.48
2022-11-16T09:59:26.499Z,1.52
2022-11-16T10:01:58.266Z,1.20
2022-11-16T10:05:03.184Z,1.40
2022-11-16T10:07:37.228Z,1.08
2022-11-16T10:10:04.098Z,1.13
2022-11-16T10:12:43.961Z,1.42
2022-11-16T10:15:16.721Z,1.35
2022-11-16T10:17:48.268Z,1.10
2022-11-16T10:20:17.911Z,1.38
2022-11-16T10:23:22.578Z,0.95
2022-11-16T10:26:12.568Z,1.30
2022-11-16T10:28:51.868Z,1.50
2022-11-16T10:31:39.950Z,0.90
2022-11-16T10:34:09.611Z,1.10
2022-11-16T10:36:38.454Z,1.25
2022-11-16T10:39:13.154Z,0.98
2022-11-16T10:41:43.586Z,1.00
2022-11-16T10:44:39.173Z,1.13
2022-11-16T10:47:14.982Z,1.20
2022-11-16T10:52:08.002Z,1.05
2022-11-16T10:54:34.534Z,1.00
2022-11-16T10:57:14.181Z,0.95
2022-11-16T10:59:46.950Z,1.13
2022-11-16T11:02:25.398Z,1.20
2022-11-16T11:05:08.166Z,1.15
2022-11-16T11:07:40.037Z,1.00
2022-11-16T11:10:28.257Z,1.00
2022-11-16T11:13:11.367Z,1.25
2022-11-16T11:15:42.986Z,1.35
2022-11-16T11:18:26.160Z,0.80
2022-11-16T11:21:06.494Z,1.00
2022-11-16T11:23:52.387Z,1.08
2022-11-16T11:26:24.903Z,0.93
2022-11-16T11:28:51.749Z,0.90
2022-11-16T11:31:26.132Z,0.88
2022-11-16T11:33:57.156Z,1.10
2022-11-16T11:36:35.584Z,1.00
2022-11-16T11:39:12.939Z,0.65
2022-11-16T11:41:59.831Z,0.93
2022-11-16T11:44:38.588Z,0.90
2022-11-16T11:50:27.094Z,0.90
2022-11-16T11:53:05.566Z,0.80
2022-11-16T11:55:32.126Z,1.02
2022-11-16T11:58:00.239Z,0.75
2022-11-16T12:00:26.839Z,0.90
2022-11-16T12:03:36.314Z,0.90
2022-11-16T12:06:19.876Z,0.80
2022-11-16T12:09:08.399Z,0.80
2022-11-16T12:11:53.565Z,1.00
2022-11-16T12:14:47.800Z,0.93
2022-11-16T12:17:36.515Z,0.73
2022-11-16T12:20:21.468Z,1.15
2022-11-16T12:23:06.456Z,0.90
2022-11-16T12:25:52.044Z,0.98
2022-11-16T12:28:21.204Z,0.80
2022-11-16T12:31:13.592Z,0.90
2022-11-16T12:33:59.794Z,0.90
2022-11-16T12:39:20.929Z,0.60
2022-11-16T12:41:55.279Z,0.65
2022-11-16T12:44:36.754Z,0.85
2022-11-16T12:47:30.094Z,0.60
2022-11-16T12:50:15.424Z,0.60
2022-11-16T12:53:10.540Z,0.80
2022-11-16T12:55:43.319Z,0.85
2022-11-16T12:58:30.753Z,0.70
2022-11-16T13:01:19.001Z,0.70
2022-11-16T13:03:57.715Z,0.60
2022-11-16T13:06:33.031Z,0.70
2022-11-16T13:09:15.765Z,0.68
2022-11-16T13:11:46.150Z,0.80
2022-11-16T13:14:19.529Z,0.68
2022-11-16T13:16:47.741Z,0.70
2022-11-16T13:19:17.134Z,0.70
2022-11-16T13:21:59.915Z,0.55
2022-11-16T13:24:46.621Z,0.70
2022-11-16T13:27:30.319Z,0.75
2022-11-16T13:30:00.320Z,0.70
2022-11-16T13:32:33.967Z,0.90
2022-11-16T13:35:03.693Z,0.65
2022-11-16T13:37:39.796Z,0.60
2022-11-16T13:40:06.317Z,0.70
2022-11-16T13:42:43.989Z,0.70
2022-11-16T13:45:20.737Z,0.68
2022-11-16T13:47:56.004Z,0.90
2022-11-16T13:50:33.125Z,0.63
2022-11-16T13:56:04.672Z,0.70
2022-11-16T13:58:33.965Z,0.60
2022-11-16T14:01:15.795Z,0.68
2022-11-16T14:03:48.169Z,0.63
2022-11-16T14:06:34.904Z,0.60
2022-11-16T14:09:01.445Z,0.68
2022-11-16T14:11:31.825Z,0.60
2022-11-16T14:14:01.507Z,0.70
2022-11-16T14:16:29.095Z,0.47
2022-11-16T14:18:59.182Z,0.50
2022-11-16T14:21:26.706Z,0.52
2022-11-16T14:24:01.782Z,0.77
2022-11-16T14:26:40.107Z,0.60
2022-11-16T14:29:58.219Z,0.63
2022-11-16T14:32:32.731Z,0.70
2022-11-16T14:35:03.047Z,0.70
2022-11-16T14:37:40.964Z,0.60
2022-11-16T14:40:20.322Z,0.68
2022-11-16T14:45:40.155Z,0.65
2022-11-16T14:48:19.161Z,0.40
2022-11-16T14:50:58.981Z,0.60
2022-11-16T14:53:27.815Z,0.60
2022-11-16T14:56:07.375Z,0.60
2022-11-16T14:58:33.996Z,0.50
2022-11-16T15:01:04.142Z,0.60
2022-11-16T15:03:58.812Z,0.88
2022-11-16T15:06:26.827Z,0.50
2022-11-16T15:08:59.505Z,0.55
2022-11-16T15:11:56.753Z,0.55
2022-11-16T15:14:28.375Z,0.63
2022-11-16T15:16:56.790Z,0.60
2022-11-16T15:19:24.210Z,0.60
2022-11-16T15:21:56.562Z,0.77
2022-11-16T15:24:31.404Z,0.50
2022-11-16T15:27:26.298Z,0.50
2022-11-16T15:29:52.840Z,0.50
2022-11-16T15:32:20.001Z,0.68
2022-11-16T15:34:50.991Z,0.60
2022-11-16T15:37:27.220Z,0.70
2022-11-16T15:39:54.920Z,0.50
2022-11-16T15:42:22.943Z,0.73
2022-11-16T15:44:50.228Z,0.65
2022-11-16T15:47:17.246Z,0.75
2022-11-16T15:49:49.588Z,0.60
2022-11-16T15:52:42.460Z,0.63
2022-11-16T15:55:27.726Z,0.65
2022-11-16T15:57:59.258Z,0.70
2022-11-16T16:00:27.038Z,0.60
2022-11-16T16:03:00.054Z,0.52
2022-11-16T16:05:44.743Z,0.60
2022-11-16T16:08:25.929Z,0.70
2022-11-16T16:10:59.621Z,0.50
2022-11-16T16:13:30.350Z,0.60
2022-11-16T16:16:19.303Z,0.68
2022-11-16T16:18:46.135Z,0.75
2022-11-16T16:21:14.255Z,0.70
2022-11-16T16:23:47.988Z,0.80
2022-11-16T16:26:18.873Z,0.80
2022-11-16T16:28:45.732Z,0.75
2022-11-16T16:31:13.062Z,0.80
2022-11-16T16:33:39.840Z,0.80
2022-11-16T16:36:07.636Z,0.60
2022-11-16T16:38:34.729Z,0.82
2022-11-16T16:41:02.885Z,0.70
2022-11-16T16:43:30.525Z,0.77
2022-11-16T16:46:00.636Z,0.55
2022-11-16T16:48:27.263Z,0.70
2022-11-16T16:50:53.934Z,0.60
2022-11-16T16:53:21.036Z,0.73
2022-11-16T16:55:48.973Z,0.90
2022-11-16T16:58:16.111Z,0.60
2022-11-16T17:00:42.886Z,0.50
2022-11-16T17:03:09.623Z,0.88
2022-11-16T17:05:37.275Z,0.70
2022-11-16T17:08:04.413Z,0.80
2022-11-16T17:10:30.951Z,0.75
2022-11-16T17:12:58.002Z,0.75
2022-11-16T17:15:25.284Z,0.60
2022-11-16T17:17:52.376Z,0.88
2022-11-16T17:20:18.908Z,1.10
2022-11-16T17:22:46.060Z,0.65
2022-11-16T17:25:12.794Z,0.88
2022-11-16T17:27:39.385Z,0.70
2022-11-16T17:30:07.355Z,0.70
2022-11-16T17:32:33.959Z,0.80
2022-11-16T17:35:01.462Z,0.55
2022-11-16T17:37:28.437Z,0.75
2022-11-16T17:39:55.441Z,0.47
2022-11-16T17:42:22.498Z,0.70
2022-11-16T17:44:49.657Z,0.82
2022-11-16T17:47:16.702Z,0.50
2022-11-16T17:49:43.267Z,0.60
2022-11-16T17:52:10.450Z,0.57
2022-11-16T17:54:37.013Z,0.57
2022-11-16T17:57:04.081Z,0.85
2022-11-16T17:59:32.840Z,0.68
2022-11-16T18:01:59.381Z,0.68
2022-11-16T18:04:26.418Z,0.50
2022-11-16T18:06:52.982Z,0.63
2022-11-16T18:09:25.786Z,0.63
2022-11-16T18:11:52.781Z,0.65
2022-11-16T18:14:19.782Z,0.75
2022-11-16T18:16:47.934Z,0.68
2022-11-16T18:19:19.131Z,0.70
2022-11-16T18:21:47.328Z,0.80
2022-11-16T18:24:13.893Z,0.88
2022-11-16T18:26:41.112Z,0.80
2022-11-16T18:29:12.181Z,0.70
2022-11-16T18:31:39.233Z,0.80
2022-11-16T18:34:06.069Z,0.80
2022-11-16T18:36:33.025Z,0.90
2022-11-16T18:38:59.565Z,0.90
2022-11-16T18:41:29.343Z,0.85
2022-11-16T18:43:58.366Z,0.73
2022-11-16T18:46:30.339Z,0.70
2022-11-16T18:48:58.074Z,0.45
2022-11-16T18:51:27.072Z,0.80
2022-11-16T18:53:54.331Z,0.80
2022-11-16T18:56:21.077Z,0.80
2022-11-16T18:58:52.205Z,0.80
2022-11-16T19:01:24.141Z,0.60
2022-11-16T19:03:51.802Z,0.70
2022-11-16T19:06:19.227Z,0.57
2022-11-16T19:08:51.755Z,0.85
2022-11-16T19:11:18.592Z,0.77
2022-11-16T19:13:45.174Z,0.70
2022-11-16T19:16:13.516Z,0.75
2022-11-16T19:18:40.244Z,0.85
2022-11-16T19:21:12.380Z,0.70
2022-11-16T19:23:41.005Z,0.80
2022-11-16T19:26:07.628Z,0.90
2022-11-16T19:28:41.645Z,0.90
2022-11-16T19:31:08.300Z,0.60
2022-11-16T19:33:35.409Z,1.15
2022-11-16T19:36:10.845Z,0.70
2022-11-16T19:38:38.749Z,0.90
2022-11-16T19:41:06.141Z,0.80
2022-11-16T19:43:33.582Z,0.80
2022-11-16T19:46:05.453Z,0.80
2022-11-16T19:48:33.585Z,0.60
2022-11-16T19:51:11.773Z,0.73
2022-11-16T19:53:39.379Z,1.00
2022-11-16T19:56:07.130Z,0.60
2022-11-16T19:58:38.322Z,0.90
2022-11-16T20:01:08.164Z,0.90
2022-11-16T20:03:35.077Z,0.70
2022-11-16T20:06:10.638Z,0.90
2022-11-16T20:08:38.362Z,0.95
2022-11-16T20:11:22.477Z,0.88
2022-11-16T20:13:50.412Z,0.88
2022-11-16T20:16:19.471Z,0.75
2022-11-16T20:18:46.793Z,0.80
2022-11-16T20:21:23.275Z,0.60
2022-11-16T20:23:51.668Z,0.80
2022-11-16T20:26:19.378Z,0.65
2022-11-16T20:28:46.487Z,0.75
2022-11-16T20:31:17.517Z,0.70
2022-11-16T20:33:51.552Z,0.50
2022-11-16T20:36:18.787Z,0.70
2022-11-16T20:38:45.540Z,0.70
2022-11-16T20:41:15.117Z,0.80
2022-11-16T20:43:43.076Z,0.70
2022-11-16T20:46:12.120Z,0.80
2022-11-16T20:48:40.605Z,0.55
2022-11-16T20:51:08.721Z,0.70
2022-11-16T20:53:35.795Z,0.82
2022-11-16T20:56:04.474Z,0.75
2022-11-16T20:58:32.555Z,0.70
2022-11-16T21:01:07.219Z,0.70
2022-11-16T21:03:34.539Z,0.70
2022-11-16T21:06:01.975Z,0.60
2022-11-16T21:08:32.304Z,0.70
2022-11-16T21:10:58.846Z,0.70
2022-11-16T21:13:44.254Z,0.68
2022-11-16T21:16:13.673Z,0.80
2022-11-16T21:18:41.454Z,0.75
2022-11-16T21:21:14.076Z,0.60
2022-11-16T21:23:51.445Z,0.77
2022-11-16T21:26:20.716Z,0.63
2022-11-16T21:28:48.233Z,0.70
2022-11-16T21:31:25.494Z,0.57
2022-11-16T21:33:53.001Z,0.70
2022-11-16T21:36:25.304Z,0.70
2022-11-16T21:38:52.695Z,0.90
2022-11-16T21:41:21.428Z,0.70
2022-11-16T21:43:48.118Z,0.80
2022-11-16T21:46:16.990Z,0.80
2022-11-16T21:48:44.569Z,0.70
2022-11-16T21:51:14.168Z,0.77
2022-11-16T21:53:41.028Z,0.80
2022-11-16T21:56:11.933Z,0.60
2022-11-16T21:58:39.167Z,0.70
2022-11-16T22:01:06.111Z,0.70
2022-11-16T22:03:33.295Z,0.70
2022-11-16T22:06:20.677Z,0.57
2022-11-16T22:08:48.263Z,0.80
2022-11-16T22:11:15.944Z,0.80
2022-11-16T22:13:43.662Z,0.85
2022-11-16T22:16:13.331Z,0.55
2022-11-16T22:18:39.938Z,0.68
2022-11-16T22:21:07.285Z,0.80
2022-11-16T22:23:35.422Z,0.80
2022-11-16T22:26:04.438Z,0.52
2022-11-16T22:28:31.987Z,0.75
2022-11-16T22:31:00.366Z,0.80
2022-11-16T22:33:27.199Z,0.70
2022-11-16T22:35:54.269Z,0.77
2022-11-16T22:38:20.786Z,0.80
2022-11-16T22:40:54.490Z,1.05
2022-11-16T22:43:23.491Z,0.80
2022-11-16T22:45:50.765Z,0.55
2022-11-16T22:48:18.229Z,0.60
2022-11-16T22:50:44.959Z,0.70
2022-11-16T22:53:11.603Z,0.82
2022-11-16T22:55:38.979Z,0.80
2022-11-16T22:58:06.306Z,0.70
2022-11-16T23:00:39.016Z,0.80
2022-11-16T23:03:08.514Z,0.60
2022-11-16T23:05:35.194Z,0.70
2022-11-16T23:08:02.274Z,0.60
2022-11-16T23:10:29.116Z,0.50
2022-11-16T23:13:14.446Z,1.00
2022-11-16T23:15:50.052Z,0.80
2022-11-16T23:18:17.264Z,0.90
2022-11-16T23:21:02.834Z,0.60
2022-11-16T23:23:47.932Z,0.75
2022-11-16T23:26:42.337Z,0.52
2022-11-16T23:29:10.820Z,0.80
2022-11-16T23:31:38.009Z,0.70
2022-11-16T23:34:05.751Z,0.70
2022-11-16T23:36:32.338Z,0.93
2022-11-16T23:38:58.940Z,0.80
2022-11-16T23:41:44.134Z,0.73
2022-11-16T23:44:11.251Z,0.70
2022-11-16T23:46:37.841Z,1.00
2022-11-16T23:49:04.361Z,0.90
2022-11-16T23:51:30.957Z,0.93
2022-11-16T23:53:57.554Z,0.82
2022-11-16T23:56:24.373Z,0.70
2022-11-16T23:58:50.895Z,0.93
